Aeroporto :







RITROVATECI SU...

 
LOGIN :

Iscrizione | Disclaimer

   EN    FR    IT 

 









Sommario :    VFR   VFR Marginale   IFR   IFR Intensivo   IFR Molto Intensivo
Visibilità : 
Base nubi : 
>= 8 km
>= 3000ft
5 / 8 km
1000 / 3000 ft
1500m / 5 km
500 / 1000 ft
800 / 1500m
200 / 500 ft
< 800m
< 200 ft
Simboli :   Temporali  Nebbia  Neve Forte  Precipitazioni Forti  Vento > 20 kt






- Altitudine del aeroporto : 881 ft


KNY0 - Fulton County

ULTIMO METAR :
  • 140815Z AUTO 13005KT 10SM CLR M08/M12 A3035 RMK AO2

METARs OBSOLETI :
  • 140756Z AUTO 12004KT 10SM CLR M08/M12 A3036 RMK AO2
  • 140735Z AUTO 14004KT 10SM CLR M08/M12 A3037 RMK AO2
  • 140715Z AUTO 14003KT 10SM CLR M08/M12 A3036 RMK AO2
  • 140655Z AUTO 14003KT 10SM CLR M08/M13 A3036 RMK AO2
  • 140635Z AUTO 15003KT 10SM SCT090 M08/M12 A3036 RMK AO2
  • 140616Z AUTO 16003KT 10SM BKN070 BKN080 BKN100 M08/M12 A3037 RMK AO2
  • 140555Z AUTO 00000KT 10SM OVC070 M09/M13 A3037 RMK AO2
  • 140536Z AUTO 00000KT 10SM SCT070 OVC080 M09/M12 A3038 RMK AO2

TAF N/A



MetMap, La meteo Aeronautica in un colpo d'occhio ! - Copyright ORBIFLY Dicembre 2007 - Disclaimer

ORBIFLY MET'MAP TEAM :

Programmazione e sviluppo : Alexandra Zaïnal
Concezione e sviluppo : Baudouin d'Aumeries
Co-Programmazione e sviluppo : Marc-Olivier Méhu
Supporto tecnico e logistico : Manuel Goepfert
Aiuto per la traduzione : Arnaldo La Scala

Contatto : metmap@orbifly.com




FONTI E CREDITI :

   NOAA